Terminal Aerodrome Forecast
Issued by NWS

Home | Current Version | Previous Version | Text Only | Print | Product List | Glossary On
Versions: 1 2 3 4 5 6 7 8 9 10 11 12 13
000
FTUS45 KPIH 282300
TAFSUN
TAF
KSUN 282320Z 2900/2924 35008KT P6SM FEW070 BKN110 BKN180
     FM290200 33015KT P6SM FEW070 BKN110 BKN180
     FM290400 31006KT P6SM SCT070 BKN110 BKN150
     FM291500 VRB05KT P6SM VCTS FEW050CB BKN110 BKN150
     FM291800 VRB05KT P6SM VCTS SCT070CB BKN130
      AMD LTD TO CLD VIS AND WIND 2905/2913=

USA.gov is the U.S. government's official web portal to all federal, state and local government web resources and services.